Stansted, United Kingdom
Current Conditions -  °F | °C
As of 9:20 AM on Friday 19 Dec 2014 (Local Time) from EGSS Reporting Station
Clear Clear  
Wind Chill: 38°   Ceiling: Unl
Heat Index: 45°   Visibility: 6mi
Dew Point: 37°   Wind: 13mph
Humidity: 76%   Direction: 290°WNW
Pressure: 29.88"   Gusts: NA
Location:  51.9°N, 0.2°E
Report Text: EGSS 190920Z 29011KT CAVOK 07/03 Q1012
Loading
Personal Weather Stations






























Interactive Weather Map New forecast layout! Learn more

10-Day Weather Forecast

Advertisements
Track Severe Weather on mobile